createdAt,value
2022-08-07T00:00:36.375Z,100787.59
2022-08-07T00:02:44.853Z,100792.13
2022-08-07T00:04:46.964Z,100789.34
2022-08-07T00:06:51.873Z,100773.84
2022-08-07T00:08:54.924Z,100786.66
2022-08-07T00:10:58.332Z,100785.66
2022-08-07T00:13:17.608Z,100783.97
2022-08-07T00:15:36.079Z,100790.28
2022-08-07T00:17:48.176Z,100782.66
2022-08-07T00:20:01.258Z,100787.19
2022-08-07T00:22:05.464Z,100788.03
2022-08-07T00:24:07.740Z,100792.75
2022-08-07T00:26:18.943Z,100797.28
2022-08-07T00:28:35.374Z,100793.09
2022-08-07T00:30:48.131Z,100786.00
2022-08-07T00:32:51.600Z,100791.28
2022-08-07T00:34:53.950Z,100798.28
2022-08-07T00:36:56.624Z,100793.00
2022-08-07T00:38:58.629Z,100781.81
2022-08-07T00:41:01.501Z,100790.97
2022-08-07T00:43:03.861Z,100790.56
2022-08-07T00:45:16.135Z,100792.50
2022-08-07T00:48:07.730Z,100782.63
2022-08-07T00:50:19.571Z,100795.53
2022-08-07T00:52:06.606Z,100796.38
2022-08-07T00:54:12.945Z,100779.19
2022-08-07T00:56:15.980Z,100783.72
2022-08-07T00:58:20.247Z,100780.09
2022-08-07T01:00:23.469Z,100779.19
2022-08-07T01:02:29.370Z,100777.59
2022-08-07T01:04:32.598Z,100773.75
2022-08-07T01:06:36.355Z,100791.78
2022-08-07T01:08:43.016Z,100784.56
2022-08-07T01:10:47.757Z,100781.78
2022-08-07T01:13:08.686Z,100780.09
2022-08-07T01:15:17.892Z,100781.56
2022-08-07T01:17:22.694Z,100777.91
2022-08-07T01:19:32.214Z,100790.50
2022-08-07T01:21:40.033Z,100769.03
2022-08-07T01:23:46.782Z,100767.19
2022-08-07T01:25:55.693Z,100786.97
2022-08-07T01:27:59.628Z,100780.94
2022-08-07T01:30:02.253Z,100795.13
2022-08-07T01:32:12.329Z,100783.72
2022-08-07T01:34:19.164Z,100784.91
2022-08-07T01:36:33.863Z,100792.97
2022-08-07T01:38:45.043Z,100793.06
2022-08-07T01:41:00.266Z,100775.97
2022-08-07T01:43:03.267Z,100788.03
2022-08-07T01:45:10.041Z,100785.88
2022-08-07T01:48:19.248Z,100780.59
2022-08-07T01:49:46.227Z,100786.72
2022-08-07T01:52:02.052Z,100789.53
2022-08-07T01:54:19.276Z,100778.25
2022-08-07T01:56:51.911Z,100791.34
2022-08-07T01:59:07.678Z,100788.03
2022-08-07T02:01:59.716Z,100798.13
2022-08-07T02:04:09.337Z,100810.06
2022-08-07T02:06:30.971Z,100810.25
2022-08-07T02:08:40.341Z,100798.25
2022-08-07T02:10:55.020Z,100805.31
2022-08-07T02:13:04.722Z,100799.50
2022-08-07T02:15:32.099Z,100786.50
2022-08-07T02:17:40.487Z,100799.19
2022-08-07T02:20:03.989Z,100806.28
2022-08-07T02:23:20.084Z,100815.19
2022-08-07T02:26:30.605Z,100791.88
2022-08-07T02:28:06.937Z,100801.97
2022-08-07T02:30:12.629Z,100806.50
2022-08-07T02:32:36.858Z,100808.97
2022-08-07T02:34:51.333Z,100796.72
2022-08-07T02:37:03.789Z,100805.41
2022-08-07T02:41:37.341Z,100797.69
2022-08-07T02:46:05.946Z,100805.97
2022-08-07T02:48:24.670Z,100814.66
2022-08-07T02:50:27.451Z,100803.72
2022-08-07T02:52:39.549Z,100805.53
2022-08-07T02:54:45.311Z,100797.69
2022-08-07T02:56:53.937Z,100802.84
2022-08-07T02:59:00.909Z,100808.00
2022-08-07T03:01:18.470Z,100790.59
2022-08-07T03:03:25.621Z,100801.13
2022-08-07T03:05:35.977Z,100802.84
2022-08-07T03:08:04.917Z,100803.91
2022-08-07T03:10:05.012Z,100797.25
2022-08-07T03:12:21.987Z,100803.69
2022-08-07T03:14:28.218Z,100805.91
2022-08-07T03:16:33.789Z,100807.56
2022-08-07T03:18:36.469Z,100798.44
2022-08-07T03:20:41.792Z,100805.72
2022-08-07T03:22:50.233Z,100794.66
2022-08-07T03:24:52.830Z,100786.81
2022-08-07T03:27:01.039Z,100793.88
2022-08-07T03:29:14.778Z,100796.25
2022-08-07T03:31:24.405Z,100790.03
2022-08-07T03:33:32.292Z,100793.47
2022-08-07T03:35:50.578Z,100799.84
2022-08-07T03:37:59.588Z,100796.41
2022-08-07T03:40:15.590Z,100788.09
2022-08-07T03:42:20.181Z,100794.69
2022-08-07T03:44:34.188Z,100794.91
2022-08-07T03:47:14.007Z,100799.44
2022-08-07T03:49:03.131Z,100792.22
2022-08-07T03:51:11.638Z,100795.41
2022-08-07T03:53:16.862Z,100800.13
2022-08-07T03:55:22.121Z,100792.47
2022-08-07T03:59:05.171Z,100807.00
2022-08-07T04:00:02.548Z,100807.75
2022-08-07T04:02:18.336Z,100814.81
2022-08-07T04:04:21.871Z,100812.50
2022-08-07T04:06:37.424Z,100811.44
2022-08-07T04:08:46.367Z,100811.66
2022-08-07T04:10:53.956Z,100812.31
2022-08-07T04:13:16.386Z,100807.25
2022-08-07T04:15:23.922Z,100801.28
2022-08-07T04:17:45.699Z,100802.66
2022-08-07T04:19:52.170Z,100807.69
2022-08-07T04:22:04.892Z,100797.78
2022-08-07T04:24:30.784Z,100814.69
2022-08-07T04:26:40.436Z,100814.16
2022-08-07T04:28:46.256Z,100816.03
2022-08-07T04:30:57.093Z,100818.53
2022-08-07T04:33:14.002Z,100812.47
2022-08-07T04:35:21.412Z,100807.44
2022-08-07T04:37:25.379Z,100818.47
2022-08-07T04:39:35.878Z,100801.06
2022-08-07T04:41:39.809Z,100818.13
2022-08-07T04:44:11.344Z,100804.72
2022-08-07T04:47:04.092Z,100821.50
2022-08-07T04:49:27.816Z,100804.31
2022-08-07T04:51:47.695Z,100816.28
2022-08-07T04:54:34.475Z,100814.00
2022-08-07T04:58:16.886Z,100816.44
2022-08-07T05:00:09.539Z,100815.28
2022-08-07T05:02:31.195Z,100810.84
2022-08-07T05:04:57.063Z,100820.31
2022-08-07T05:07:36.416Z,100819.84
2022-08-07T05:10:21.857Z,100816.09
2022-08-07T05:12:46.278Z,100813.53
2022-08-07T05:15:09.053Z,100824.34
2022-08-07T05:17:16.196Z,100823.97
2022-08-07T05:19:49.388Z,100821.66
2022-08-07T05:22:01.763Z,100824.34
2022-08-07T05:24:18.040Z,100825.50
2022-08-07T05:26:23.829Z,100820.66
2022-08-07T05:28:40.608Z,100830.56
2022-08-07T05:30:47.267Z,100829.75
2022-08-07T05:32:51.081Z,100816.50
2022-08-07T05:34:58.394Z,100811.94
2022-08-07T05:37:08.882Z,100832.44
2022-08-07T05:40:06.067Z,100828.78
2022-08-07T05:42:01.588Z,100827.09
2022-08-07T05:44:12.284Z,100834.66
2022-08-07T05:46:23.652Z,100834.09
2022-08-07T05:48:30.564Z,100821.25
2022-08-07T05:50:43.319Z,100835.22
2022-08-07T05:52:50.853Z,100838.38
2022-08-07T05:54:59.216Z,100823.59
2022-08-07T05:57:09.920Z,100831.25
2022-08-07T05:59:19.484Z,100844.38
2022-08-07T06:01:35.770Z,100825.19
2022-08-07T06:04:02.939Z,100834.59
2022-08-07T06:06:29.938Z,100832.91
2022-08-07T06:09:06.357Z,100843.75
2022-08-07T06:11:16.263Z,100850.47
2022-08-07T06:13:31.491Z,100843.25
2022-08-07T06:15:49.841Z,100837.59
2022-08-07T06:17:57.927Z,100853.09
2022-08-07T06:20:03.932Z,100850.81
2022-08-07T06:22:15.473Z,100851.53
2022-08-07T06:24:37.748Z,100855.25
2022-08-07T06:26:49.083Z,100849.50
2022-08-07T06:28:56.396Z,100840.94
2022-08-07T06:31:03.744Z,100861.09
2022-08-07T06:33:15.769Z,100860.69
2022-08-07T06:35:19.773Z,100861.72
2022-08-07T06:37:25.016Z,100863.91
2022-08-07T06:40:15.952Z,100866.59
2022-08-07T06:44:51.450Z,100861.63
2022-08-07T06:47:12.113Z,100867.22
2022-08-07T06:49:18.905Z,100853.81
2022-08-07T06:51:33.185Z,100866.06
2022-08-07T06:54:12.047Z,100873.97
2022-08-07T06:56:15.474Z,100873.44
2022-08-07T06:58:24.628Z,100878.28
2022-08-07T07:00:39.336Z,100870.09
2022-08-07T07:02:49.136Z,100867.22
2022-08-07T07:04:57.109Z,100874.16
2022-08-07T07:07:10.745Z,100868.88
2022-08-07T07:09:31.377Z,100867.91
2022-08-07T07:12:07.913Z,100869.84
2022-08-07T07:14:01.465Z,100861.00
2022-08-07T07:16:12.346Z,100864.41
2022-08-07T07:18:46.997Z,100861.69
2022-08-07T07:21:03.922Z,100865.53
2022-08-07T07:24:08.029Z,100844.19
2022-08-07T07:26:34.513Z,100862.53
2022-08-07T07:28:29.830Z,100861.75
2022-08-07T07:31:02.198Z,100846.53
2022-08-07T07:33:06.689Z,100853.91
2022-08-07T07:35:12.128Z,100839.72
2022-08-07T07:37:21.766Z,100850.88
2022-08-07T07:39:52.398Z,100840.19
2022-08-07T07:42:17.626Z,100852.56
2022-08-07T07:44:29.695Z,100845.88
2022-08-07T07:46:55.271Z,100845.03
2022-08-07T07:50:36.672Z,100854.56
2022-08-07T07:52:01.691Z,100853.56
2022-08-07T07:54:08.329Z,100837.34
2022-08-07T07:56:14.267Z,100847.75
2022-08-07T08:04:10.611Z,100844.19
2022-08-07T08:06:27.713Z,100847.13
2022-08-07T08:08:39.428Z,100839.31
2022-08-07T08:10:48.468Z,100850.34
2022-08-07T08:13:00.072Z,100841.41
2022-08-07T08:15:12.809Z,100839.25
2022-08-07T08:18:17.540Z,100840.81
2022-08-07T08:20:17.252Z,100849.66
2022-08-07T08:25:42.903Z,100830.13
2022-08-07T08:30:17.522Z,100846.88
2022-08-07T08:32:51.524Z,100851.19
2022-08-07T08:35:39.441Z,100837.41
2022-08-07T08:43:56.056Z,100856.31
2022-08-07T08:50:04.530Z,100862.31
2022-08-07T08:52:40.629Z,100844.97
2022-08-07T08:55:55.184Z,100853.66
2022-08-07T08:59:00.176Z,100855.53
2022-08-07T09:05:10.100Z,100860.22
2022-08-07T09:08:10.626Z,100852.66
2022-08-07T09:10:44.260Z,100858.03
2022-08-07T09:13:36.946Z,100865.16
2022-08-07T09:16:30.755Z,100848.13
2022-08-07T09:19:51.589Z,100849.63
2022-08-07T09:22:37.066Z,100843.81
2022-08-07T09:25:17.614Z,100838.38
2022-08-07T09:30:02.141Z,100851.16
2022-08-07T09:31:53.953Z,100837.81
2022-08-07T09:34:44.556Z,100833.06
2022-08-07T09:37:15.736Z,100827.38
2022-08-07T09:39:55.328Z,100824.63
2022-08-07T09:42:42.139Z,100823.94
2022-08-07T09:47:27.739Z,100824.03
2022-08-07T09:48:19.078Z,100824.81
2022-08-07T09:50:51.388Z,100827.41
2022-08-07T09:53:06.484Z,100821.41
2022-08-07T09:56:03.609Z,100817.38
2022-08-07T09:58:42.242Z,100812.88
2022-08-07T10:01:02.644Z,100812.88
2022-08-07T10:04:05.878Z,100814.69
2022-08-07T10:06:29.804Z,100806.38
2022-08-07T10:08:36.624Z,100811.41
2022-08-07T10:12:03.155Z,100808.41
2022-08-07T10:14:11.085Z,100811.94
2022-08-07T10:16:45.328Z,100806.22
2022-08-07T10:18:55.978Z,100807.63
2022-08-07T10:22:12.592Z,100796.94
2022-08-07T10:24:25.818Z,100796.91
2022-08-07T10:27:15.621Z,100788.56
2022-08-07T10:30:18.044Z,100780.72
2022-08-07T10:32:51.257Z,100778.88
2022-08-07T10:35:25.538Z,100769.44
2022-08-07T10:38:00.749Z,100778.28
2022-08-07T10:40:30.227Z,100772.91
2022-08-07T10:43:29.893Z,100769.66
2022-08-07T10:45:58.366Z,100759.06
2022-08-07T10:48:35.462Z,100759.97
2022-08-07T10:51:57.715Z,100766.81
2022-08-07T10:54:23.413Z,100754.19
2022-08-07T10:57:11.305Z,100759.47
2022-08-07T10:59:47.589Z,100745.16
2022-08-07T11:02:12.290Z,100740.38
2022-08-07T11:04:38.157Z,100750.78
2022-08-07T11:07:01.033Z,100747.19
2022-08-07T11:10:07.137Z,100738.69
2022-08-07T11:11:52.159Z,100729.31
2022-08-07T11:14:57.561Z,100745.97
2022-08-07T11:17:02.016Z,100744.59
2022-08-07T11:19:27.244Z,100733.69
2022-08-07T11:22:06.845Z,100735.09
2022-08-07T11:24:55.956Z,100730.63
2022-08-07T11:28:01.218Z,100737.75
2022-08-07T11:30:41.523Z,100736.78
2022-08-07T11:33:07.923Z,100727.59
2022-08-07T11:35:25.159Z,100725.91
2022-08-07T11:37:58.164Z,100724.88
2022-08-07T11:40:37.140Z,100715.53
2022-08-07T11:43:01.656Z,100722.50
2022-08-07T11:45:35.946Z,100721.13
2022-08-07T11:48:18.020Z,100710.75
2022-08-07T11:51:01.433Z,100714.94
2022-08-07T11:54:01.046Z,100709.75
2022-08-07T11:56:37.501Z,100709.81
2022-08-07T11:59:07.668Z,100707.13
2022-08-07T12:02:01.371Z,100708.81
2022-08-07T12:04:48.009Z,100707.09
2022-08-07T12:11:08.125Z,100692.13
2022-08-07T12:13:45.117Z,100697.16
2022-08-07T12:16:07.025Z,100689.75
2022-08-07T12:18:37.315Z,100695.56
2022-08-07T12:21:55.632Z,100693.44
2022-08-07T12:24:37.948Z,100695.78
2022-08-07T12:26:55.425Z,100685.09
2022-08-07T12:29:11.953Z,100701.69
2022-08-07T12:31:24.345Z,100680.53
2022-08-07T12:34:01.511Z,100690.78
2022-08-07T12:36:10.996Z,100691.81
2022-08-07T12:38:36.890Z,100678.03
2022-08-07T12:41:03.406Z,100688.22
2022-08-07T12:44:01.516Z,100669.31
2022-08-07T12:46:02.523Z,100683.47
2022-08-07T12:48:28.342Z,100662.13
2022-08-07T12:51:17.674Z,100665.38
2022-08-07T12:54:24.139Z,100664.94
2022-08-07T12:56:20.694Z,100666.19
2022-08-07T12:58:35.479Z,100660.53
2022-08-07T13:01:14.489Z,100662.13
2022-08-07T13:08:12.695Z,100656.75
2022-08-07T13:10:39.515Z,100659.13
2022-08-07T13:13:09.375Z,100654.56
2022-08-07T13:15:29.724Z,100641.66
2022-08-07T13:17:53.912Z,100643.41
2022-08-07T13:20:39.964Z,100652.97
2022-08-07T13:23:09.956Z,100649.19
2022-08-07T13:25:36.954Z,100644.94
2022-08-07T13:28:11.558Z,100634.88
2022-08-07T13:30:19.539Z,100630.47
2022-08-07T13:33:06.044Z,100623.97
2022-08-07T13:36:00.686Z,100626.00
2022-08-07T13:38:20.743Z,100628.03
2022-08-07T13:40:35.556Z,100623.13
2022-08-07T13:42:49.695Z,100618.53
2022-08-07T13:45:20.811Z,100610.38
2022-08-07T13:47:25.092Z,100619.06
2022-08-07T13:50:35.818Z,100611.91
2022-08-07T13:52:36.253Z,100599.28
2022-08-07T13:54:49.291Z,100604.84
2022-08-07T13:57:00.734Z,100605.63
2022-08-07T13:59:22.477Z,100603.38
2022-08-07T14:01:51.273Z,100593.13
2022-08-07T14:04:14.968Z,100585.66
2022-08-07T14:06:19.435Z,100588.88
2022-08-07T14:08:25.754Z,100598.13
2022-08-07T14:10:41.776Z,100600.78
2022-08-07T14:13:06.818Z,100589.59
2022-08-07T14:15:31.950Z,100586.88
2022-08-07T14:18:23.832Z,100579.38
2022-08-07T14:24:55.883Z,100584.81
2022-08-07T14:28:09.578Z,100579.19
2022-08-07T14:30:10.122Z,100579.84
2022-08-07T14:32:10.096Z,100565.56
2022-08-07T14:34:20.263Z,100565.94
2022-08-07T14:36:24.024Z,100573.44
2022-08-07T14:38:33.348Z,100574.78
2022-08-07T14:40:37.232Z,100569.53
2022-08-07T14:43:55.791Z,100563.91
2022-08-07T14:47:33.774Z,100571.22
2022-08-07T14:49:57.081Z,100567.13
2022-08-07T14:52:10.459Z,100566.81
2022-08-07T14:54:32.831Z,100545.00
2022-08-07T14:56:41.753Z,100567.47
2022-08-07T14:58:55.098Z,100558.25
2022-08-07T15:00:59.656Z,100558.94
2022-08-07T15:03:52.793Z,100557.59
2022-08-07T15:05:54.756Z,100554.19
2022-08-07T15:08:12.499Z,100561.34
2022-08-07T15:10:27.038Z,100545.34
2022-08-07T15:12:45.314Z,100552.00
2022-08-07T15:15:21.378Z,100550.47
2022-08-07T15:17:54.916Z,100551.81
2022-08-07T15:22:33.580Z,100560.00
2022-08-07T15:25:12.959Z,100541.63
2022-08-07T15:27:29.351Z,100551.47
2022-08-07T15:30:16.714Z,100545.03
2022-08-07T15:34:59.712Z,100546.19
2022-08-07T15:37:29.326Z,100532.94
2022-08-07T15:40:20.491Z,100538.53
2022-08-07T15:42:47.632Z,100536.50
2022-08-07T15:44:56.049Z,100526.28
2022-08-07T15:47:08.962Z,100528.50
2022-08-07T15:50:05.634Z,100536.84
2022-08-07T15:54:04.139Z,100531.72
2022-08-07T15:56:09.358Z,100529.53
2022-08-07T15:58:20.685Z,100526.81
2022-08-07T16:00:40.208Z,100525.09
2022-08-07T16:02:47.696Z,100528.84
2022-08-07T16:04:59.059Z,100533.44
2022-08-07T16:08:29.256Z,100507.19
2022-08-07T16:10:15.009Z,100529.31
2022-08-07T16:12:34.570Z,100528.97
2022-08-07T16:14:59.106Z,100531.19
2022-08-07T16:18:01.946Z,100528.28
2022-08-07T16:20:33.997Z,100525.72
2022-08-07T16:23:05.415Z,100513.31
2022-08-07T16:25:22.789Z,100530.50
2022-08-07T16:27:39.898Z,100524.41
2022-08-07T16:30:11.459Z,100521.13
2022-08-07T16:32:35.058Z,100507.88
2022-08-07T16:34:51.839Z,100527.94
2022-08-07T16:37:02.311Z,100525.41
2022-08-07T16:39:40.399Z,100524.88
2022-08-07T16:42:21.468Z,100520.44
2022-08-07T16:45:14.925Z,100522.13
2022-08-07T16:47:51.216Z,100524.50
2022-08-07T16:50:38.914Z,100527.72
2022-08-07T16:54:03.006Z,100517.50
2022-08-07T16:56:13.871Z,100523.78
2022-08-07T16:59:14.148Z,100524.78
2022-08-07T17:01:36.330Z,100516.91
2022-08-07T17:04:15.267Z,100526.53
2022-08-07T17:06:57.879Z,100517.66
2022-08-07T17:10:06.593Z,100507.59
2022-08-07T17:12:33.873Z,100517.28
2022-08-07T17:15:04.309Z,100522.53
2022-08-07T17:17:46.636Z,100526.06
2022-08-07T17:20:02.157Z,100527.53
2022-08-07T17:22:39.253Z,100525.31
2022-08-07T17:25:47.695Z,100528.34
2022-08-07T17:28:23.337Z,100528.16
2022-08-07T17:30:58.126Z,100532.88
2022-08-07T17:34:09.529Z,100530.50
2022-08-07T17:36:20.446Z,100529.13
2022-08-07T17:39:10.500Z,100528.75
2022-08-07T17:42:06.766Z,100534.47
2022-08-07T17:47:16.609Z,100523.47
2022-08-07T17:49:44.927Z,100533.56
2022-08-07T17:52:14.140Z,100531.13
2022-08-07T17:54:40.044Z,100538.88
2022-08-07T17:57:18.724Z,100541.34
2022-08-07T17:59:21.576Z,100549.50
2022-08-07T18:01:43.086Z,100541.66
2022-08-07T18:04:07.446Z,100544.16
2022-08-07T18:06:37.229Z,100545.94
2022-08-07T18:09:02.041Z,100552.41
2022-08-07T18:11:53.639Z,100546.34
2022-08-07T18:14:23.865Z,100552.72
2022-08-07T18:16:33.548Z,100550.16
2022-08-07T18:21:09.845Z,100553.84
2022-08-07T18:21:55.207Z,100552.97
2022-08-07T18:24:40.267Z,100553.44
2022-08-07T18:27:20.960Z,100551.19
2022-08-07T18:30:05.470Z,100548.91
2022-08-07T18:32:34.462Z,100558.44
2022-08-07T18:35:21.349Z,100558.34
2022-08-07T18:38:57.999Z,100563.38
2022-08-07T18:41:17.194Z,100571.78
2022-08-07T18:43:59.535Z,100564.97
2022-08-07T18:46:54.877Z,100573.41
2022-08-07T18:50:32.459Z,100568.59
2022-08-07T18:52:53.140Z,100576.63
2022-08-07T18:55:43.003Z,100566.22
2022-08-07T18:57:58.802Z,100576.91
2022-08-07T19:00:33.104Z,100577.38
2022-08-07T19:02:53.692Z,100573.84
2022-08-07T19:05:08.433Z,100578.97
2022-08-07T19:07:51.960Z,100581.13
2022-08-07T19:10:18.652Z,100582.66
2022-08-07T19:13:10.407Z,100587.50
2022-08-07T19:16:05.929Z,100583.56
2022-08-07T19:18:34.577Z,100586.53
2022-08-07T19:21:09.816Z,100594.09
2022-08-07T19:23:58.536Z,100585.81
2022-08-07T19:26:23.468Z,100586.41
2022-08-07T19:30:55.781Z,100587.28
2022-08-07T19:31:43.721Z,100597.38
2022-08-07T19:33:46.480Z,100574.00
2022-08-07T19:36:03.756Z,100601.91
2022-08-07T19:38:16.160Z,100598.16
2022-08-07T19:40:31.135Z,100606.56
2022-08-07T19:42:43.153Z,100617.66
2022-08-07T19:45:00.605Z,100606.22
2022-08-07T19:47:17.458Z,100607.75
2022-08-07T19:49:58.579Z,100608.72
2022-08-07T19:52:00.214Z,100601.84
2022-08-07T19:54:34.578Z,100606.06
2022-08-07T19:58:01.620Z,100610.56
2022-08-07T19:58:58.864Z,100612.84
2022-08-07T20:01:03.584Z,100598.44
2022-08-07T20:03:34.977Z,100597.09
2022-08-07T20:06:01.119Z,100599.94
2022-08-07T20:08:12.112Z,100600.47
2022-08-07T20:10:35.746Z,100600.16
2022-08-07T20:13:15.763Z,100601.53
2022-08-07T20:16:31.970Z,100591.47
2022-08-07T20:19:09.998Z,100600.59
2022-08-07T20:22:12.047Z,100616.28
2022-08-07T20:25:29.253Z,100616.69
2022-08-07T20:27:57.875Z,100621.50
2022-08-07T20:30:11.063Z,100626.88
2022-08-07T20:32:41.148Z,100620.03
2022-08-07T20:34:59.669Z,100613.06
2022-08-07T20:37:06.445Z,100625.09
2022-08-07T20:40:01.535Z,100612.88
2022-08-07T20:41:49.291Z,100614.84
2022-08-07T20:43:57.489Z,100615.94
2022-08-07T20:46:25.635Z,100614.03
2022-08-07T20:48:30.071Z,100616.19
2022-08-07T20:50:35.725Z,100620.88
2022-08-07T20:52:51.247Z,100617.69
2022-08-07T20:54:57.468Z,100608.41
2022-08-07T20:57:04.750Z,100618.69
2022-08-07T21:00:04.926Z,100605.22
2022-08-07T21:01:45.289Z,100612.19
2022-08-07T21:04:21.732Z,100619.31
2022-08-07T21:06:28.200Z,100615.06
2022-08-07T21:08:40.849Z,100609.03
2022-08-07T21:10:44.790Z,100610.00
2022-08-07T21:12:50.548Z,100588.84
2022-08-07T21:14:59.732Z,100603.69
2022-08-07T21:18:03.120Z,100601.59
2022-08-07T21:19:51.140Z,100605.28
2022-08-07T21:22:07.549Z,100588.75
2022-08-07T21:24:35.056Z,100599.41
2022-08-07T21:27:19.347Z,100600.41
2022-08-07T21:29:33.547Z,100596.38
2022-08-07T21:32:47.009Z,100605.91
2022-08-07T21:35:02.070Z,100611.44
2022-08-07T21:37:58.170Z,100612.53
2022-08-07T21:40:35.959Z,100611.81
2022-08-07T21:42:56.795Z,100618.16
2022-08-07T21:46:08.650Z,100622.72
2022-08-07T21:48:29.225Z,100622.09
2022-08-07T21:50:51.295Z,100625.91
2022-08-07T21:53:10.961Z,100617.94
2022-08-07T21:55:33.975Z,100623.34
2022-08-07T21:57:53.453Z,100627.16
2022-08-07T22:00:22.723Z,100616.59
2022-08-07T22:02:52.697Z,100614.16
2022-08-07T22:04:59.812Z,100616.75
2022-08-07T22:07:11.552Z,100617.81
2022-08-07T22:09:18.337Z,100624.69
2022-08-07T22:11:22.699Z,100620.78
2022-08-07T22:13:50.192Z,100619.78
2022-08-07T22:16:45.743Z,100619.16
2022-08-07T22:18:58.803Z,100613.16
2022-08-07T22:22:01.945Z,100626.19
2022-08-07T22:24:18.603Z,100626.06
2022-08-07T22:26:33.627Z,100631.19
2022-08-07T22:29:13.656Z,100636.06
2022-08-07T22:31:59.593Z,100633.00
2022-08-07T22:34:13.928Z,100633.09
2022-08-07T22:39:52.713Z,100630.53
2022-08-07T22:42:30.371Z,100619.22
2022-08-07T22:44:38.657Z,100612.88
2022-08-07T22:47:49.513Z,100623.38
2022-08-07T22:50:09.544Z,100623.66
2022-08-07T22:52:43.191Z,100619.34
2022-08-07T22:55:17.276Z,100617.78
2022-08-07T22:57:41.063Z,100610.44
2022-08-07T23:03:30.032Z,100608.91
2022-08-07T23:06:35.816Z,100602.63
2022-08-07T23:16:07.248Z,100605.34
2022-08-07T23:18:02.729Z,100609.50
2022-08-07T23:20:40.245Z,100607.53
2022-08-07T23:24:04.145Z,100611.22
2022-08-07T23:25:53.329Z,100606.94
2022-08-07T23:28:20.087Z,100601.06
2022-08-07T23:31:42.728Z,100596.53
2022-08-07T23:46:35.547Z,100609.00
2022-08-07T23:49:15.308Z,100604.34
2022-08-07T23:52:59.570Z,100601.94
2022-08-07T23:54:43.922Z,100596.53
2022-08-07T23:57:37.956Z,100605.34
